sensor_id;sensor_type;location;lat;lon;timestamp;pressure;altitude;pressure_sealevel;temperature;humidity
75627;BME280;67372;49.404;11.034;2024-02-21T00:01:15;99060.16;;;7.63;70.99
75627;BME280;67372;49.404;11.034;2024-02-21T00:03:42;99059.53;;;7.61;70.94
75627;BME280;67372;49.404;11.034;2024-02-21T00:06:09;99059.88;;;7.58;72.03
75627;BME280;67372;49.404;11.034;2024-02-21T00:19:23;99048.75;;;7.55;71.04
75627;BME280;67372;49.404;11.034;2024-02-21T00:21:50;99050.41;;;7.56;71.19
75627;BME280;67372;49.404;11.034;2024-02-21T00:24:16;99040.63;;;7.56;71.38
75627;BME280;67372;49.404;11.034;2024-02-21T00:26:42;99038.63;;;7.58;70.96
75627;BME280;67372;49.404;11.034;2024-02-21T00:29:09;99032.31;;;7.59;70.86
75627;BME280;67372;49.404;11.034;2024-02-21T00:31:35;99028.53;;;7.54;71.04
75627;BME280;67372;49.404;11.034;2024-02-21T00:34:02;99030.53;;;7.52;71.21
75627;BME280;67372;49.404;11.034;2024-02-21T00:36:28;99032.88;;;7.47;71.49
75627;BME280;67372;49.404;11.034;2024-02-21T00:38:54;99036.06;;;7.42;71.86
75627;BME280;67372;49.404;11.034;2024-02-21T00:41:21;99028.75;;;7.44;71.60
75627;BME280;67372;49.404;11.034;2024-02-21T00:43:47;99021.63;;;7.45;72.19
75627;BME280;67372;49.404;11.034;2024-02-21T00:46:14;99022.81;;;7.42;72.58
75627;BME280;67372;49.404;11.034;2024-02-21T00:48:40;99019.69;;;7.38;72.40
75627;BME280;67372;49.404;11.034;2024-02-21T00:51:06;99009.88;;;7.39;72.47
75627;BME280;67372;49.404;11.034;2024-02-21T00:53:33;99009.53;;;7.42;72.39
75627;BME280;67372;49.404;11.034;2024-02-21T00:55:59;99012.72;;;7.37;72.80
75627;BME280;67372;49.404;11.034;2024-02-21T00:58:25;99010.06;;;7.37;72.38
75627;BME280;67372;49.404;11.034;2024-02-21T01:00:52;99010.06;;;7.37;72.61
75627;BME280;67372;49.404;11.034;2024-02-21T01:03:18;98999.81;;;7.34;72.94
75627;BME280;67372;49.404;11.034;2024-02-21T01:05:45;98998.97;;;7.34;72.49
75627;BME280;67372;49.404;11.034;2024-02-21T01:08:11;99003.47;;;7.33;72.70
75627;BME280;67372;49.404;11.034;2024-02-21T01:10:37;98998.31;;;7.32;72.93
75627;BME280;67372;49.404;11.034;2024-02-21T01:13:04;98995.81;;;7.30;72.94
75627;BME280;67372;49.404;11.034;2024-02-21T01:15:30;98983.75;;;7.28;73.07
75627;BME280;67372;49.404;11.034;2024-02-21T01:17:57;98984.28;;;7.23;74.00
75627;BME280;67372;49.404;11.034;2024-02-21T01:20:23;98981.97;;;7.20;73.58
75627;BME280;67372;49.404;11.034;2024-02-21T01:22:49;98977.31;;;7.22;73.20
75627;BME280;67372;49.404;11.034;2024-02-21T01:25:16;98976.50;;;7.22;73.11
75627;BME280;67372;49.404;11.034;2024-02-21T01:27:42;98969.53;;;7.21;72.90
75627;BME280;67372;49.404;11.034;2024-02-21T01:30:09;98976.50;;;7.22;73.99
75627;BME280;67372;49.404;11.034;2024-02-21T01:32:36;98973.19;;;7.20;73.33
75627;BME280;67372;49.404;11.034;2024-02-21T01:35:02;98971.25;;;7.14;74.26
75627;BME280;67372;49.404;11.034;2024-02-21T01:37:29;98972.06;;;7.14;73.54
75627;BME280;67372;49.404;11.034;2024-02-21T01:39:56;98967.59;;;7.15;73.42
75627;BME280;67372;49.404;11.034;2024-02-21T01:42:22;98959.81;;;7.13;73.48
75627;BME280;67372;49.404;11.034;2024-02-21T01:44:48;98956.81;;;7.08;74.29
75627;BME280;67372;49.404;11.034;2024-02-21T01:47:15;98956.50;;;7.11;73.90
75627;BME280;67372;49.404;11.034;2024-02-21T01:49:41;98953.69;;;7.13;74.29
75627;BME280;67372;49.404;11.034;2024-02-21T01:52:08;98945.91;;;7.11;74.17
75627;BME280;67372;49.404;11.034;2024-02-21T01:54:37;98952.34;;;7.08;73.97
75627;BME280;67372;49.404;11.034;2024-02-21T01:57:04;98946.91;;;7.10;74.33
75627;BME280;67372;49.404;11.034;2024-02-21T01:59:31;98942.41;;;7.11;74.53
75627;BME280;67372;49.404;11.034;2024-02-21T02:01:58;98935.94;;;7.13;73.99
75627;BME280;67372;49.404;11.034;2024-02-21T02:04:24;98935.28;;;7.11;74.63
75627;BME280;67372;49.404;11.034;2024-02-21T02:06:51;98936.75;;;7.14;74.33
75627;BME280;67372;49.404;11.034;2024-02-21T02:09:17;98936.22;;;7.18;74.08
75627;BME280;67372;49.404;11.034;2024-02-21T02:11:44;98931.56;;;7.20;74.41
75627;BME280;67372;49.404;11.034;2024-02-21T02:14:10;98934.84;;;7.22;74.61
75627;BME280;67372;49.404;11.034;2024-02-21T02:16:37;98936.69;;;7.22;74.10
75627;BME280;67372;49.404;11.034;2024-02-21T02:19:03;98933.84;;;7.23;74.20
75627;BME280;67372;49.404;11.034;2024-02-21T02:21:32;98924.91;;;7.24;74.24
75627;BME280;67372;49.404;11.034;2024-02-21T02:24:00;98932.50;;;7.27;73.47
75627;BME280;67372;49.404;11.034;2024-02-21T02:26:27;98927.19;;;7.27;73.99
75627;BME280;67372;49.404;11.034;2024-02-21T02:28:54;98919.59;;;7.24;74.32
75627;BME280;67372;49.404;11.034;2024-02-21T02:31:20;98922.88;;;7.26;73.99
75627;BME280;67372;49.404;11.034;2024-02-21T02:33:47;98913.91;;;7.27;74.82
75627;BME280;67372;49.404;11.034;2024-02-21T02:36:13;98904.13;;;7.28;74.38
75627;BME280;67372;49.404;11.034;2024-02-21T02:38:39;98904.50;;;7.25;75.08
75627;BME280;67372;49.404;11.034;2024-02-21T02:41:06;98907.78;;;7.27;74.25
75627;BME280;67372;49.404;11.034;2024-02-21T02:43:32;98902.94;;;7.30;74.65
75627;BME280;67372;49.404;11.034;2024-02-21T02:45:59;98896.44;;;7.33;74.48
75627;BME280;67372;49.404;11.034;2024-02-21T02:48:25;98889.16;;;7.35;74.23
75627;BME280;67372;49.404;11.034;2024-02-21T02:50:51;98881.22;;;7.35;73.94
75627;BME280;67372;49.404;11.034;2024-02-21T02:53:18;98878.06;;;7.31;74.64
75627;BME280;67372;49.404;11.034;2024-02-21T02:55:44;98880.06;;;7.29;74.75
75627;BME280;67372;49.404;11.034;2024-02-21T02:58:11;98878.25;;;7.30;74.53
75627;BME280;67372;49.404;11.034;2024-02-21T03:00:37;98877.06;;;7.32;nan
75627;BME280;67372;49.404;11.034;2024-02-21T03:03:04;98873.25;;;7.35;74.71
75627;BME280;67372;49.404;11.034;2024-02-21T03:05:30;98876.53;;;7.37;74.34
75627;BME280;67372;49.404;11.034;2024-02-21T03:07:57;98874.72;;;7.37;74.34
75627;BME280;67372;49.404;11.034;2024-02-21T03:10:24;98877.38;;;7.37;73.94
75627;BME280;67372;49.404;11.034;2024-02-21T03:12:50;98873.88;;;7.37;74.32
75627;BME280;67372;49.404;11.034;2024-02-21T03:15:16;98876.38;;;7.38;73.80
75627;BME280;67372;49.404;11.034;2024-02-21T03:17:43;98872.06;;;7.37;74.23
75627;BME280;67372;49.404;11.034;2024-02-21T03:20:10;98870.59;;;7.35;74.34
75627;BME280;67372;49.404;11.034;2024-02-21T03:22:39;98865.47;;;7.33;74.47
75627;BME280;67372;49.404;11.034;2024-02-21T03:25:07;98858.31;;;7.34;74.69
75627;BME280;67372;49.404;11.034;2024-02-21T03:27:33;98863.78;;;7.32;74.97
75627;BME280;67372;49.404;11.034;2024-02-21T03:30:00;98860.97;;;7.34;74.15
75627;BME280;67372;49.404;11.034;2024-02-21T03:32:26;98855.69;;;7.34;74.46
75627;BME280;67372;49.404;11.034;2024-02-21T03:34:53;98860.81;;;7.35;74.73
75627;BME280;67372;49.404;11.034;2024-02-21T03:37:19;98857.78;;;7.38;74.00
75627;BME280;67372;49.404;11.034;2024-02-21T03:39:45;98857.41;;;7.42;74.36
75627;BME280;67372;49.404;11.034;2024-02-21T03:42:12;98856.88;;;7.46;73.90
75627;BME280;67372;49.404;11.034;2024-02-21T03:44:38;98863.66;;;7.49;74.25
75627;BME280;67372;49.404;11.034;2024-02-21T03:47:05;98866.50;;;7.47;74.15
75627;BME280;67372;49.404;11.034;2024-02-21T03:49:31;98862.19;;;7.46;74.27
75627;BME280;67372;49.404;11.034;2024-02-21T03:51:57;98858.53;;;7.47;74.05
75627;BME280;67372;49.404;11.034;2024-02-21T03:54:24;98865.03;;;7.45;74.33
75627;BME280;67372;49.404;11.034;2024-02-21T03:56:50;98854.22;;;7.46;74.31
75627;BME280;67372;49.404;11.034;2024-02-21T03:59:17;98853.22;;;7.47;74.36
75627;BME280;67372;49.404;11.034;2024-02-21T04:01:43;98852.22;;;7.48;74.08
75627;BME280;67372;49.404;11.034;2024-02-21T04:04:10;98849.38;;;7.50;74.26
75627;BME280;67372;49.404;11.034;2024-02-21T04:06:37;98846.53;;;7.51;74.40
75627;BME280;67372;49.404;11.034;2024-02-21T04:09:11;98848.19;;;7.52;73.95
75627;BME280;67372;49.404;11.034;2024-02-21T04:11:38;98840.41;;;7.51;74.44
75627;BME280;67372;49.404;11.034;2024-02-21T04:14:04;98833.44;;;7.50;74.12
75627;BME280;67372;49.404;11.034;2024-02-21T04:16:30;98822.66;;;7.51;74.35
75627;BME280;67372;49.404;11.034;2024-02-21T04:18:57;98818.81;;;7.54;74.47
75627;BME280;67372;49.404;11.034;2024-02-21T04:21:23;98815.88;;;7.49;74.64
75627;BME280;67372;49.404;11.034;2024-02-21T04:23:49;98814.13;;;7.41;75.13
75627;BME280;67372;49.404;11.034;2024-02-21T04:26:16;98812.47;;;7.40;74.93
75627;BME280;67372;49.404;11.034;2024-02-21T04:28:45;98816.69;;;7.34;75.17
75627;BME280;67372;49.404;11.034;2024-02-21T04:31:11;98821.31;;;7.32;75.46
75627;BME280;67372;49.404;11.034;2024-02-21T04:33:38;98807.91;;;7.34;75.42
75627;BME280;67372;49.404;11.034;2024-02-21T04:36:04;98812.66;;;7.38;75.38
75627;BME280;67372;49.404;11.034;2024-02-21T04:38:31;98814.13;;;7.41;75.82
75627;BME280;67372;49.404;11.034;2024-02-21T04:40:57;98815.78;;;7.42;76.08
75627;BME280;67372;49.404;11.034;2024-02-21T04:43:25;98816.41;;;7.44;75.66
75627;BME280;67372;49.404;11.034;2024-02-21T04:45:51;98810.28;;;7.44;75.75
75627;BME280;67372;49.404;11.034;2024-02-21T04:48:17;98807.09;;;7.48;75.83
75627;BME280;67372;49.404;11.034;2024-02-21T04:50:44;98803.25;;;7.51;75.83
75627;BME280;67372;49.404;11.034;2024-02-21T04:53:10;98803.88;;;7.53;75.96
75627;BME280;67372;49.404;11.034;2024-02-21T04:55:36;98800.84;;;7.56;75.64
75627;BME280;67372;49.404;11.034;2024-02-21T04:58:03;98795.53;;;7.56;75.69
75627;BME280;67372;49.404;11.034;2024-02-21T05:00:29;98803.06;;;7.52;76.00
75627;BME280;67372;49.404;11.034;2024-02-21T05:02:55;98803.25;;;7.51;75.83
75627;BME280;67372;49.404;11.034;2024-02-21T05:05:22;98789.31;;;7.49;75.90
75627;BME280;67372;49.404;11.034;2024-02-21T05:07:48;98791.72;;;7.44;76.82
75627;BME280;67372;49.404;11.034;2024-02-21T05:10:15;98797.56;;;7.39;76.68
75627;BME280;67372;49.404;11.034;2024-02-21T05:12:41;98787.97;;;7.38;76.34
75627;BME280;67372;49.404;11.034;2024-02-21T05:15:08;98781.19;;;7.35;77.26
75627;BME280;67372;49.404;11.034;2024-02-21T05:17:34;98776.41;;;7.31;76.57
75627;BME280;67372;49.404;11.034;2024-02-21T05:20:01;98767.97;;;7.27;76.58
75627;BME280;67372;49.404;11.034;2024-02-21T05:22:27;98764.88;;;7.24;76.58
75627;BME280;67372;49.404;11.034;2024-02-21T05:24:54;98765.22;;;7.21;77.10
75627;BME280;67372;49.404;11.034;2024-02-21T05:27:20;98764.31;;;7.14;77.49
75627;BME280;67372;49.404;11.034;2024-02-21T05:29:47;98764.69;;;7.11;77.51
75627;BME280;67372;49.404;11.034;2024-02-21T05:32:13;98759.72;;;7.07;77.34
75627;BME280;67372;49.404;11.034;2024-02-21T05:34:39;98761.34;;;7.08;76.84
75627;BME280;67372;49.404;11.034;2024-02-21T05:37:06;98757.88;;;7.08;77.05
75627;BME280;67372;49.404;11.034;2024-02-21T05:39:32;98762.53;;;7.06;76.97
75627;BME280;67372;49.404;11.034;2024-02-21T05:41:58;98762.09;;;7.02;77.24
75627;BME280;67372;49.404;11.034;2024-02-21T05:44:25;98766.91;;;6.99;76.89
75627;BME280;67372;49.404;11.034;2024-02-21T05:46:51;98756.03;;;6.94;77.29
75627;BME280;67372;49.404;11.034;2024-02-21T05:49:18;98765.19;;;6.91;77.07
75627;BME280;67372;49.404;11.034;2024-02-21T05:51:44;98752.91;;;6.90;77.15
75627;BME280;67372;49.404;11.034;2024-02-21T05:54:11;98748.97;;;6.86;77.33
75627;BME280;67372;49.404;11.034;2024-02-21T05:56:37;98745.19;;;6.81;77.69
75627;BME280;67372;49.404;11.034;2024-02-21T05:59:03;98743.25;;;6.74;77.95
75627;BME280;67372;49.404;11.034;2024-02-21T06:01:30;98754.22;;;6.71;78.44
75627;BME280;67372;49.404;11.034;2024-02-21T06:03:57;98754.41;;;6.70;77.81
75627;BME280;67372;49.404;11.034;2024-02-21T06:06:23;98752.75;;;6.69;77.77
75627;BME280;67372;49.404;11.034;2024-02-21T06:08:49;98755.78;;;6.66;78.10
75627;BME280;67372;49.404;11.034;2024-02-21T06:11:16;98755.94;;;6.64;78.54
75627;BME280;67372;49.404;11.034;2024-02-21T06:13:42;98758.47;;;6.58;79.10
75627;BME280;67372;49.404;11.034;2024-02-21T06:16:09;98746.94;;;6.51;78.90
75627;BME280;67372;49.404;11.034;2024-02-21T06:18:36;98749.47;;;6.44;78.74
75627;BME280;67372;49.404;11.034;2024-02-21T06:21:02;98742.72;;;6.33;80.73
75627;BME280;67372;49.404;11.034;2024-02-21T06:23:29;98738.97;;;6.28;79.04
75627;BME280;67372;49.404;11.034;2024-02-21T06:25:55;98741.31;;;6.23;80.64
75627;BME280;67372;49.404;11.034;2024-02-21T06:28:22;98747.97;;;6.19;79.40
75627;BME280;67372;49.404;11.034;2024-02-21T06:30:48;98750.97;;;6.15;79.71
75627;BME280;67372;49.404;11.034;2024-02-21T06:33:14;98756.59;;;6.12;80.10
75627;BME280;67372;49.404;11.034;2024-02-21T06:35:41;98758.44;;;6.12;80.05
75627;BME280;67372;49.404;11.034;2024-02-21T06:38:07;98761.91;;;6.12;79.64
75627;BME280;67372;49.404;11.034;2024-02-21T06:40:34;98768.03;;;6.13;79.25
75627;BME280;67372;49.404;11.034;2024-02-21T06:43:00;98768.84;;;6.13;79.61
75627;BME280;67372;49.404;11.034;2024-02-21T06:45:26;98770.84;;;6.11;80.51
75627;BME280;67372;49.404;11.034;2024-02-21T06:47:54;98774.31;;;6.12;79.66
75627;BME280;67372;49.404;11.034;2024-02-21T06:50:20;98769.03;;;6.12;80.87
75627;BME280;67372;49.404;11.034;2024-02-21T06:52:47;98770.66;;;6.13;81.01
75627;BME280;67372;49.404;11.034;2024-02-21T06:55:13;98760.06;;;6.13;81.87
75627;BME280;67372;49.404;11.034;2024-02-21T07:00:14;98754.09;;;6.19;81.50
75627;BME280;67372;49.404;11.034;2024-02-21T07:02:41;98762.03;;;6.19;82.04
75627;BME280;67372;49.404;11.034;2024-02-21T07:05:07;98765.16;;;6.23;81.36
75627;BME280;67372;49.404;11.034;2024-02-21T07:07:34;98765.47;;;6.28;81.33
75627;BME280;67372;49.404;11.034;2024-02-21T07:10:00;98763.47;;;6.30;80.80
75627;BME280;67372;49.404;11.034;2024-02-21T07:12:27;98760.00;;;6.29;81.30
75627;BME280;67372;49.404;11.034;2024-02-21T07:14:53;98751.22;;;6.29;82.03
75627;BME280;67372;49.404;11.034;2024-02-21T07:17:19;98756.69;;;6.27;82.00
75627;BME280;67372;49.404;11.034;2024-02-21T07:19:46;98758.63;;;6.33;81.88
75627;BME280;67372;49.404;11.034;2024-02-21T07:22:12;98749.00;;;6.40;81.49
75627;BME280;67372;49.404;11.034;2024-02-21T07:24:39;98751.41;;;6.50;81.44
75627;BME280;67372;49.404;11.034;2024-02-21T07:27:05;98750.97;;;6.61;81.13
75627;BME280;67372;49.404;11.034;2024-02-21T07:29:31;98750.13;;;6.69;80.79
75627;BME280;67372;49.404;11.034;2024-02-21T07:31:58;98744.72;;;6.77;80.16
75627;BME280;67372;49.404;11.034;2024-02-21T07:34:24;98743.50;;;6.88;80.11
75627;BME280;67372;49.404;11.034;2024-02-21T07:36:51;98739.94;;;6.95;79.81
75627;BME280;67372;49.404;11.034;2024-02-21T07:39:17;98736.00;;;7.06;79.66
75627;BME280;67372;49.404;11.034;2024-02-21T07:41:44;98733.75;;;7.18;78.98
75627;BME280;67372;49.404;11.034;2024-02-21T07:44:10;98740.88;;;7.32;78.55
75627;BME280;67372;49.404;11.034;2024-02-21T07:46:37;98730.47;;;7.45;77.91
75627;BME280;67372;49.404;11.034;2024-02-21T07:49:03;98736.13;;;7.57;77.39
75627;BME280;67372;49.404;11.034;2024-02-21T07:51:29;98736.13;;;7.72;77.19
75627;BME280;67372;49.404;11.034;2024-02-21T07:53:56;98737.84;;;7.79;75.34
75627;BME280;67372;49.404;11.034;2024-02-21T07:56:22;98725.38;;;7.94;76.09
75627;BME280;67372;49.404;11.034;2024-02-21T07:58:49;98727.94;;;8.02;75.59
75627;BME280;67372;49.404;11.034;2024-02-21T08:01:21;98733.97;;;8.11;73.91
75627;BME280;67372;49.404;11.034;2024-02-21T08:03:48;98739.34;;;8.18;74.40
75627;BME280;67372;49.404;11.034;2024-02-21T08:06:14;98735.13;;;8.23;74.38
75627;BME280;67372;49.404;11.034;2024-02-21T08:08:41;98724.19;;;8.33;74.61
75627;BME280;67372;49.404;11.034;2024-02-21T08:11:07;98707.50;;;8.39;72.57
75627;BME280;67372;49.404;11.034;2024-02-21T08:13:34;98708.47;;;8.53;71.53
75627;BME280;67372;49.404;11.034;2024-02-21T08:16:00;98701.38;;;8.60;71.44
75627;BME280;67372;49.404;11.034;2024-02-21T08:18:26;98705.97;;;8.73;72.70
75627;BME280;67372;49.404;11.034;2024-02-21T08:20:53;98692.34;;;8.82;71.27
75627;BME280;67372;49.404;11.034;2024-02-21T08:23:23;98683.00;;;8.93;69.35
75627;BME280;67372;49.404;11.034;2024-02-21T08:25:49;98683.91;;;9.00;69.44
75627;BME280;67372;49.404;11.034;2024-02-21T08:28:16;98683.94;;;9.07;68.82
75627;BME280;67372;49.404;11.034;2024-02-21T08:30:42;98683.19;;;9.19;69.95
75627;BME280;67372;49.404;11.034;2024-02-21T08:33:09;98684.50;;;9.30;69.67
75627;BME280;67372;49.404;11.034;2024-02-21T08:35:35;98687.19;;;9.37;69.12
75627;BME280;67372;49.404;11.034;2024-02-21T08:38:01;98684.19;;;9.46;68.78
75627;BME280;67372;49.404;11.034;2024-02-21T08:40:28;98686.66;;;9.54;68.57
75627;BME280;67372;49.404;11.034;2024-02-21T08:42:54;98690.59;;;9.65;68.38
75627;BME280;67372;49.404;11.034;2024-02-21T08:45:21;98686.97;;;9.73;67.43
75627;BME280;67372;49.404;11.034;2024-02-21T08:47:47;98682.06;;;9.76;68.02
75627;BME280;67372;49.404;11.034;2024-02-21T08:50:13;98681.84;;;9.78;67.38
75627;BME280;67372;49.404;11.034;2024-02-21T08:52:53;98673.47;;;9.88;64.52
75627;BME280;67372;49.404;11.034;2024-02-21T08:55:20;98664.25;;;9.90;65.44
75627;BME280;67372;49.404;11.034;2024-02-21T08:57:46;98662.59;;;9.82;63.15
75627;BME280;67372;49.404;11.034;2024-02-21T09:00:13;98660.75;;;9.90;65.33
75627;BME280;67372;49.404;11.034;2024-02-21T09:02:40;98662.06;;;10.07;64.36
75627;BME280;67372;49.404;11.034;2024-02-21T09:05:07;98665.13;;;10.10;64.00
75627;BME280;67372;49.404;11.034;2024-02-21T09:07:34;98670.47;;;10.17;63.81
75627;BME280;67372;49.404;11.034;2024-02-21T09:10:00;98670.53;;;10.30;65.13
75627;BME280;67372;49.404;11.034;2024-02-21T09:12:27;98669.75;;;10.43;62.83
75627;BME280;67372;49.404;11.034;2024-02-21T09:14:53;98665.22;;;10.63;60.92
75627;BME280;67372;49.404;11.034;2024-02-21T09:17:19;98669.13;;;10.54;61.25
75627;BME280;67372;49.404;11.034;2024-02-21T09:19:47;98663.59;;;10.42;61.79
75627;BME280;67372;49.404;11.034;2024-02-21T09:22:13;98661.97;;;10.41;63.16
75627;BME280;67372;49.404;11.034;2024-02-21T09:24:40;98652.50;;;10.52;61.98
75627;BME280;67372;49.404;11.034;2024-02-21T09:27:06;98651.88;;;10.57;61.73
75627;BME280;67372;49.404;11.034;2024-02-21T09:29:32;98648.63;;;10.68;62.16
75627;BME280;67372;49.404;11.034;2024-02-21T09:31:59;98646.56;;;10.70;60.59
75627;BME280;67372;49.404;11.034;2024-02-21T09:34:26;98650.88;;;10.71;61.15
75627;BME280;67372;49.404;11.034;2024-02-21T09:36:52;98643.91;;;10.70;61.37
75627;BME280;67372;49.404;11.034;2024-02-21T09:39:19;98649.25;;;10.70;62.35
75627;BME280;67372;49.404;11.034;2024-02-21T09:41:50;98652.50;;;10.79;61.53
75627;BME280;67372;49.404;11.034;2024-02-21T09:44:16;98655.19;;;10.92;61.28
75627;BME280;67372;49.404;11.034;2024-02-21T09:46:52;98649.16;;;11.10;61.95
75627;BME280;67372;49.404;11.034;2024-02-21T09:49:30;98653.22;;;11.32;59.48
75627;BME280;67372;49.404;11.034;2024-02-21T09:51:57;98641.28;;;11.48;60.04
75627;BME280;67372;49.404;11.034;2024-02-21T09:54:23;98641.06;;;11.49;59.91
75627;BME280;67372;49.404;11.034;2024-02-21T09:56:50;98631.66;;;11.40;59.78
75627;BME280;67372;49.404;11.034;2024-02-21T09:59:16;98631.88;;;11.38;59.99
75627;BME280;67372;49.404;11.034;2024-02-21T10:01:43;98633.72;;;11.38;58.87
75627;BME280;67372;49.404;11.034;2024-02-21T10:04:10;98622.22;;;11.37;59.24
75627;BME280;67372;49.404;11.034;2024-02-21T10:06:37;98618.09;;;11.42;60.42
75627;BME280;67372;49.404;11.034;2024-02-21T10:09:03;98614.78;;;11.46;60.23
75627;BME280;67372;49.404;11.034;2024-02-21T10:11:30;98605.53;;;11.42;58.96
75627;BME280;67372;49.404;11.034;2024-02-21T10:14:06;98605.16;;;11.38;58.48
75627;BME280;67372;49.404;11.034;2024-02-21T10:16:33;98605.75;;;11.34;58.82
75627;BME280;67372;49.404;11.034;2024-02-21T10:19:00;98595.72;;;11.36;58.53
75627;BME280;67372;49.404;11.034;2024-02-21T10:21:27;98594.09;;;11.22;57.89
75627;BME280;67372;49.404;11.034;2024-02-21T10:23:53;98602.16;;;11.15;57.66
75627;BME280;67372;49.404;11.034;2024-02-21T10:26:19;98587.94;;;11.21;58.37
75627;BME280;67372;49.404;11.034;2024-02-21T10:28:49;98597.34;;;11.30;59.16
75627;BME280;67372;49.404;11.034;2024-02-21T10:31:26;98586.63;;;11.44;58.34
75627;BME280;67372;49.404;11.034;2024-02-21T10:33:58;98582.88;;;11.51;58.43
75627;BME280;67372;49.404;11.034;2024-02-21T10:36:25;98580.38;;;11.56;57.21
75627;BME280;67372;49.404;11.034;2024-02-21T10:38:52;98578.28;;;11.72;58.37
75627;BME280;67372;49.404;11.034;2024-02-21T10:41:20;98570.84;;;11.80;57.00
75627;BME280;67372;49.404;11.034;2024-02-21T10:43:53;98571.19;;;11.90;57.13
75627;BME280;67372;49.404;11.034;2024-02-21T10:46:21;98567.59;;;12.10;55.38
75627;BME280;67372;49.404;11.034;2024-02-21T10:49:13;98558.69;;;12.16;55.02
75627;BME280;67372;49.404;11.034;2024-02-21T10:51:43;98551.63;;;12.21;55.18
75627;BME280;67372;49.404;11.034;2024-02-21T10:56:51;98549.19;;;12.45;54.05
75627;BME280;67372;49.404;11.034;2024-02-21T10:59:18;98538.69;;;12.43;54.11
75627;BME280;67372;49.404;11.034;2024-02-21T11:01:44;98532.09;;;12.46;54.21
75627;BME280;67372;49.404;11.034;2024-02-21T11:04:11;98527.16;;;12.43;54.21
75627;BME280;67372;49.404;11.034;2024-02-21T11:06:38;98523.09;;;12.40;55.65
75627;BME280;67372;49.404;11.034;2024-02-21T11:09:07;98523.00;;;12.47;55.07
75627;BME280;67372;49.404;11.034;2024-02-21T11:11:38;98523.38;;;12.50;54.66
75627;BME280;67372;49.404;11.034;2024-02-21T11:14:10;98524.44;;;12.49;53.97
75627;BME280;67372;49.404;11.034;2024-02-21T11:16:38;98522.94;;;12.53;52.68
75627;BME280;67372;49.404;11.034;2024-02-21T11:19:09;98509.66;;;12.65;54.59
75627;BME280;67372;49.404;11.034;2024-02-21T11:21:37;98500.50;;;12.73;53.43
75627;BME280;67372;49.404;11.034;2024-02-21T11:24:04;98491.06;;;12.70;52.61
75627;BME280;67372;49.404;11.034;2024-02-21T11:26:31;98486.97;;;12.68;52.74
75627;BME280;67372;49.404;11.034;2024-02-21T11:29:01;98478.22;;;12.60;53.74
75627;BME280;67372;49.404;11.034;2024-02-21T11:31:41;98476.63;;;12.53;52.55
75627;BME280;67372;49.404;11.034;2024-02-21T11:34:09;98464.75;;;12.67;52.56
75627;BME280;67372;49.404;11.034;2024-02-21T11:36:46;98461.19;;;12.73;52.81
75627;BME280;67372;49.404;11.034;2024-02-21T11:39:12;98464.09;;;12.72;53.16
75627;BME280;67372;49.404;11.034;2024-02-21T11:41:39;98455.31;;;12.65;52.53
75627;BME280;67372;49.404;11.034;2024-02-21T11:44:05;98454.50;;;12.64;53.60
75627;BME280;67372;49.404;11.034;2024-02-21T11:46:31;98446.75;;;12.74;53.03
75627;BME280;67372;49.404;11.034;2024-02-21T11:48:58;98438.13;;;12.90;52.59
75627;BME280;67372;49.404;11.034;2024-02-21T11:51:25;98428.31;;;12.84;51.76
75627;BME280;67372;49.404;11.034;2024-02-21T11:53:52;98428.22;;;12.91;52.82
75627;BME280;67372;49.404;11.034;2024-02-21T11:56:27;98432.09;;;12.95;52.93
75627;BME280;67372;49.404;11.034;2024-02-21T11:58:53;98426.28;;;12.98;52.63
75627;BME280;67372;49.404;11.034;2024-02-21T12:01:19;98414.44;;;13.06;52.65
75627;BME280;67372;49.404;11.034;2024-02-21T12:03:46;98407.06;;;13.19;52.71
75627;BME280;67372;49.404;11.034;2024-02-21T12:06:12;98406.88;;;13.33;52.29
75627;BME280;67372;49.404;11.034;2024-02-21T12:08:43;98397.69;;;13.40;50.97
75627;BME280;67372;49.404;11.034;2024-02-21T12:13:43;98381.75;;;13.69;50.19
75627;BME280;67372;49.404;11.034;2024-02-21T12:16:09;98379.94;;;13.81;50.89
75627;BME280;67372;49.404;11.034;2024-02-21T12:18:36;98378.19;;;13.98;51.61
75627;BME280;67372;49.404;11.034;2024-02-21T12:21:04;98376.06;;;14.12;50.09
75627;BME280;67372;49.404;11.034;2024-02-21T12:23:31;98368.16;;;14.05;48.06
75627;BME280;67372;49.404;11.034;2024-02-21T12:25:59;98368.72;;;13.96;48.11
75627;BME280;67372;49.404;11.034;2024-02-21T12:28:25;98364.63;;;13.93;48.41
75627;BME280;67372;49.404;11.034;2024-02-21T12:30:52;98365.59;;;13.99;48.82
75627;BME280;67372;49.404;11.034;2024-02-21T12:33:18;98362.31;;;14.08;48.35
75627;BME280;67372;49.404;11.034;2024-02-21T12:35:45;98351.91;;;14.12;47.82
75627;BME280;67372;49.404;11.034;2024-02-21T12:38:11;98357.03;;;14.25;48.45
75627;BME280;67372;49.404;11.034;2024-02-21T12:40:38;98341.19;;;14.24;48.36
75627;BME280;67372;49.404;11.034;2024-02-21T12:43:04;98341.06;;;14.19;48.65
75627;BME280;67372;49.404;11.034;2024-02-21T12:45:31;98340.13;;;14.25;47.64
75627;BME280;67372;49.404;11.034;2024-02-21T12:47:57;98321.47;;;14.18;47.70
75627;BME280;67372;49.404;11.034;2024-02-21T12:50:24;98319.13;;;14.22;48.16
75627;BME280;67372;49.404;11.034;2024-02-21T12:52:50;98311.34;;;14.08;46.17
75627;BME280;67372;49.404;11.034;2024-02-21T12:55:17;98301.78;;;14.01;44.18
75627;BME280;67372;49.404;11.034;2024-02-21T12:57:43;98307.72;;;14.03;45.84
75627;BME280;67372;49.404;11.034;2024-02-21T13:00:10;98302.63;;;14.01;46.19
75627;BME280;67372;49.404;11.034;2024-02-21T13:02:36;98298.88;;;14.02;46.72
75627;BME280;67372;49.404;11.034;2024-02-21T13:05:06;98295.00;;;14.10;46.79
75627;BME280;67372;49.404;11.034;2024-02-21T13:07:32;98293.38;;;14.21;47.11
75627;BME280;67372;49.404;11.034;2024-02-21T13:09:59;98284.94;;;14.29;47.15
75627;BME280;67372;49.404;11.034;2024-02-21T13:12:25;98280.13;;;14.31;47.22
75627;BME280;67372;49.404;11.034;2024-02-21T13:14:52;98274.19;;;14.29;46.18